Time;durP1;ratioP1;P1;durP2;ratioP2;P2;SDS_P1;SDS_P2;PMS_P1;PMS_P2;Temp;Humidity;BMP_temperature;BMP_pressure;BME280_temperature;BME280_humidity;BME280_pressure;Samples;Min_cycle;Max_cycle;Signal;HPM_P1;HPM_P2
2023/05/27 00:01:04;;;;;;;15.10;5.00;;;;;;;;;;4969907;28;100292;-74
2023/05/27 00:03:31;;;;;;;13.20;4.30;;;;;;;;;;4968483;28;98259;-75
2023/05/27 00:05:57;;;;;;;14.82;4.53;;;;;;;;;;4967713;28;99408;-75
2023/05/27 00:08:24;;;;;;;17.08;4.70;;;;;;;;;;4969424;28;99251;-75
2023/05/27 00:10:50;;;;;;;14.05;4.10;;;;;;;;;;4965883;28;98499;-75
2023/05/27 00:13:17;;;;;;;16.65;4.60;;;;;;;;;;4971926;28;99610;-76
2023/05/27 00:15:43;;;;;;;21.15;5.00;;;;;;;;;;4969815;28;98223;-74
2023/05/27 00:18:11;;;;;;;13.70;3.92;;;;;;;;;;4968466;28;99347;-74
2023/05/27 00:20:39;;;;;;;28.48;5.20;;;;;;;;;;4968240;28;98966;-76
2023/05/27 00:23:06;;;;;;;24.35;5.55;;;;;;;;;;4969202;28;98320;-76
2023/05/27 00:25:32;;;;;;;15.02;4.68;;;;;;;;;;4966038;28;99662;-75
2023/05/27 00:28:00;;;;;;;17.98;4.20;;;;;;;;;;4967912;28;100025;-75
2023/05/27 00:30:27;;;;;;;20.60;4.97;;;;;;;;;;4968302;28;98312;-74
2023/05/27 00:32:54;;;;;;;18.40;4.57;;;;;;;;;;4964687;28;99466;-76
2023/05/27 00:35:22;;;;;;;21.83;5.65;;;;;;;;;;4969645;28;98945;-75
2023/05/27 00:37:49;;;;;;;15.05;4.57;;;;;;;;;;4967913;28;99936;-74
2023/05/27 00:40:18;;;;;;;19.42;4.65;;;;;;;;;;4968147;28;98835;-74
2023/05/27 00:42:46;;;;;;;21.73;4.85;;;;;;;;;;4964707;28;98977;-76
2023/05/27 00:45:12;;;;;;;13.30;4.47;;;;;;;;;;4968643;28;98355;-75
2023/05/27 00:47:39;;;;;;;18.77;5.15;;;;;;;;;;4968579;28;98684;-75
2023/05/27 00:50:07;;;;;;;17.23;4.45;;;;;;;;;;4968016;28;98329;-76
2023/05/27 00:52:34;;;;;;;12.45;4.35;;;;;;;;;;4959870;28;99294;-74
2023/05/27 00:55:00;;;;;;;15.13;5.50;;;;;;;;;;4968892;28;100075;-75
2023/05/27 00:57:27;;;;;;;14.45;4.75;;;;;;;;;;4966050;28;98411;-74
2023/05/27 00:59:54;;;;;;;18.95;5.43;;;;;;;;;;4966655;28;99211;-75
2023/05/27 01:02:23;;;;;;;10.40;4.63;;;;;;;;;;4967905;28;99098;-74
2023/05/27 01:04:50;;;;;;;16.40;4.15;;;;;;;;;;4968116;28;101020;-76
2023/05/27 01:07:35;;;;;;;17.80;4.93;;;;;;;;;;4968357;28;98831;-76
2023/05/27 01:10:10;;;;;;;11.07;3.78;;;;;;;;;;4963486;28;98212;-75
2023/05/27 01:12:42;;;;;;;18.80;5.35;;;;;;;;;;4968602;28;98478;-75
2023/05/27 01:15:09;;;;;;;14.48;4.03;;;;;;;;;;4965154;28;101988;-75
2023/05/27 01:17:42;;;;;;;15.60;4.15;;;;;;;;;;4971452;28;98421;-76
2023/05/27 01:20:10;;;;;;;17.60;4.68;;;;;;;;;;4966560;28;101587;-75
2023/05/27 01:22:37;;;;;;;17.75;4.45;;;;;;;;;;4966474;28;98877;-75
2023/05/27 01:25:03;;;;;;;21.52;4.55;;;;;;;;;;4968999;28;98412;-74
2023/05/27 01:27:32;;;;;;;16.35;5.30;;;;;;;;;;4967382;28;101461;-74
2023/05/27 01:29:58;;;;;;;15.90;5.18;;;;;;;;;;4962545;28;99124;-75
2023/05/27 01:32:41;;;;;;;24.55;4.65;;;;;;;;;;4966834;28;100296;-75
2023/05/27 01:35:07;;;;;;;11.88;4.32;;;;;;;;;;4962347;28;99990;-75
2023/05/27 01:37:40;;;;;;;14.63;4.90;;;;;;;;;;4966310;28;98324;-74
2023/05/27 01:40:07;;;;;;;15.55;4.85;;;;;;;;;;4970199;28;99569;-75
2023/05/27 01:42:38;;;;;;;17.50;6.60;;;;;;;;;;4967433;28;98227;-74
2023/05/27 01:45:06;;;;;;;19.63;5.13;;;;;;;;;;4963938;28;100856;-76
2023/05/27 01:47:33;;;;;;;19.40;5.65;;;;;;;;;;4964756;28;101217;-75
2023/05/27 01:50:00;;;;;;;19.67;6.57;;;;;;;;;;4967651;28;98322;-75
2023/05/27 01:52:27;;;;;;;23.60;5.07;;;;;;;;;;4967046;28;98688;-74
2023/05/27 01:54:54;;;;;;;16.88;4.97;;;;;;;;;;4967646;28;98799;-75
2023/05/27 01:57:21;;;;;;;17.17;4.55;;;;;;;;;;4965895;28;98200;-74
2023/05/27 01:59:48;;;;;;;17.50;5.20;;;;;;;;;;4966487;28;100691;-76
2023/05/27 02:02:14;;;;;;;16.58;5.15;;;;;;;;;;4961747;28;101434;-75
2023/05/27 02:04:41;;;;;;;16.30;4.75;;;;;;;;;;4946563;28;100272;-74
2023/05/27 02:07:07;;;;;;;28.67;5.13;;;;;;;;;;4966543;28;99457;-74
2023/05/27 02:09:37;;;;;;;17.52;4.40;;;;;;;;;;4965692;28;98292;-75
2023/05/27 02:12:03;;;;;;;16.23;4.50;;;;;;;;;;4967435;28;98682;-75
2023/05/27 02:14:31;;;;;;;20.70;4.70;;;;;;;;;;4965878;28;99206;-74
2023/05/27 02:16:57;;;;;;;15.43;4.28;;;;;;;;;;4966038;28;99030;-75
2023/05/27 02:19:25;;;;;;;19.77;5.80;;;;;;;;;;4965787;28;98488;-75
2023/05/27 02:21:51;;;;;;;19.92;4.80;;;;;;;;;;4967536;28;100820;-74
2023/05/27 02:24:18;;;;;;;15.02;4.90;;;;;;;;;;4970521;28;98236;-74
2023/05/27 02:26:44;;;;;;;19.95;5.82;;;;;;;;;;4967428;28;99189;-74
2023/05/27 02:29:11;;;;;;;15.75;4.32;;;;;;;;;;4967998;28;98219;-75
2023/05/27 02:31:37;;;;;;;24.40;5.03;;;;;;;;;;4968214;28;98610;-75
2023/05/27 02:34:05;;;;;;;17.42;5.03;;;;;;;;;;4962264;28;101341;-77
2023/05/27 02:36:31;;;;;;;13.25;4.53;;;;;;;;;;4967851;28;98430;-74
2023/05/27 02:38:58;;;;;;;23.95;6.03;;;;;;;;;;4966449;28;100277;-74
2023/05/27 02:41:24;;;;;;;10.57;4.93;;;;;;;;;;4959258;28;99421;-76
2023/05/27 02:43:51;;;;;;;16.80;4.70;;;;;;;;;;4964938;28;98296;-76
2023/05/27 02:46:17;;;;;;;14.80;4.97;;;;;;;;;;4968521;28;100787;-75
2023/05/27 02:48:44;;;;;;;15.25;4.40;;;;;;;;;;4966341;28;98142;-74
2023/05/27 02:51:10;;;;;;;17.15;4.75;;;;;;;;;;4964737;28;100508;-74
2023/05/27 02:53:37;;;;;;;21.85;4.90;;;;;;;;;;4965440;28;100174;-74
2023/05/27 02:56:03;;;;;;;16.85;5.05;;;;;;;;;;4967852;28;98273;-74
2023/05/27 02:58:30;;;;;;;16.73;5.78;;;;;;;;;;4966098;28;98084;-75
2023/05/27 03:00:56;;;;;;;17.13;6.00;;;;;;;;;;4966783;28;98772;-76
2023/05/27 03:03:23;;;;;;;21.25;6.22;;;;;;;;;;4965638;28;98607;-75
2023/05/27 03:05:50;;;;;;;13.85;4.80;;;;;;;;;;4967508;28;99375;-75
2023/05/27 03:08:17;;;;;;;19.00;5.20;;;;;;;;;;4966666;28;98230;-74
2023/05/27 03:10:43;;;;;;;17.35;5.00;;;;;;;;;;4965255;28;100312;-74
2023/05/27 03:13:10;;;;;;;22.23;6.15;;;;;;;;;;4966885;28;100256;-75
2023/05/27 03:15:36;;;;;;;26.75;8.68;;;;;;;;;;4964711;28;98304;-74
2023/05/27 03:18:03;;;;;;;19.33;5.53;;;;;;;;;;4965923;28;99336;-75
2023/05/27 03:20:30;;;;;;;17.42;5.60;;;;;;;;;;4968665;28;99410;-75
2023/05/27 03:22:57;;;;;;;15.38;5.22;;;;;;;;;;4960452;28;99025;-75
2023/05/27 03:25:23;;;;;;;21.00;6.07;;;;;;;;;;4970222;28;98329;-74
2023/05/27 03:27:53;;;;;;;14.73;4.95;;;;;;;;;;4955466;28;100852;-75
2023/05/27 03:30:20;;;;;;;21.38;5.85;;;;;;;;;;4971087;28;99254;-76
2023/05/27 03:32:49;;;;;;;21.20;5.90;;;;;;;;;;4976380;28;101212;-75
2023/05/27 03:35:21;;;;;;;21.92;6.38;;;;;;;;;;4973968;28;98326;-75
2023/05/27 03:37:47;;;;;;;16.75;5.47;;;;;;;;;;4967168;28;101251;-75
2023/05/27 03:40:14;;;;;;;20.23;5.75;;;;;;;;;;4961501;28;99966;-76
2023/05/27 03:42:40;;;;;;;14.32;4.65;;;;;;;;;;4969489;28;98231;-75
2023/05/27 03:45:11;;;;;;;24.50;5.22;;;;;;;;;;4969172;28;99426;-75
2023/05/27 03:47:38;;;;;;;28.88;5.65;;;;;;;;;;4967457;28;98996;-75
2023/05/27 03:50:08;;;;;;;22.90;6.68;;;;;;;;;;4972758;28;98220;-76
2023/05/27 03:52:35;;;;;;;24.33;6.00;;;;;;;;;;4969095;28;98879;-75
2023/05/27 03:55:04;;;;;;;17.70;4.90;;;;;;;;;;4967293;28;98330;-75
2023/05/27 03:57:32;;;;;;;18.55;5.20;;;;;;;;;;4967997;28;101132;-75
2023/05/27 03:59:59;;;;;;;19.20;5.22;;;;;;;;;;4969867;28;98857;-75
2023/05/27 04:02:26;;;;;;;19.20;5.82;;;;;;;;;;4969553;28;98245;-74
2023/05/27 04:04:53;;;;;;;24.48;6.32;;;;;;;;;;4968045;28;99428;-76
2023/05/27 04:07:19;;;;;;;18.75;5.93;;;;;;;;;;4967363;28;101624;-74
2023/05/27 04:09:46;;;;;;;20.25;4.95;;;;;;;;;;4966460;28;100151;-76
2023/05/27 04:12:12;;;;;;;26.55;5.35;;;;;;;;;;4971849;28;98576;-75
2023/05/27 04:14:38;;;;;;;26.30;6.20;;;;;;;;;;4970165;28;98301;-74
2023/05/27 04:17:05;;;;;;;17.95;5.25;;;;;;;;;;4969778;28;98585;-75
2023/05/27 04:19:34;;;;;;;22.60;6.40;;;;;;;;;;4967302;28;100939;-75
2023/05/27 04:22:01;;;;;;;17.15;5.45;;;;;;;;;;4967961;28;98355;-75
2023/05/27 04:24:28;;;;;;;17.58;5.22;;;;;;;;;;4967242;28;100699;-75
2023/05/27 04:26:54;;;;;;;17.85;5.35;;;;;;;;;;4965971;28;101996;-74
2023/05/27 04:29:22;;;;;;;19.45;5.28;;;;;;;;;;4967913;28;98332;-76
2023/05/27 04:31:48;;;;;;;19.67;5.20;;;;;;;;;;4958697;28;98545;-75
2023/05/27 04:34:18;;;;;;;14.88;5.85;;;;;;;;;;4971190;28;101471;-75
2023/05/27 04:36:49;;;;;;;23.25;4.95;;;;;;;;;;4967227;28;100983;-76
2023/05/27 04:39:19;;;;;;;22.33;6.32;;;;;;;;;;4966970;28;103669;-75
2023/05/27 04:41:45;;;;;;;13.65;4.68;;;;;;;;;;4968178;28;98216;-75
2023/05/27 04:44:23;;;;;;;25.17;4.78;;;;;;;;;;4967554;28;100762;-76
2023/05/27 04:46:50;;;;;;;17.38;5.32;;;;;;;;;;4967046;28;101316;-75
2023/05/27 04:49:17;;;;;;;20.35;5.18;;;;;;;;;;4967256;28;98252;-75
2023/05/27 04:51:44;;;;;;;25.27;6.05;;;;;;;;;;4968012;28;98606;-75
2023/05/27 04:54:12;;;;;;;13.63;4.82;;;;;;;;;;4967012;28;101343;-75
2023/05/27 04:56:39;;;;;;;23.55;5.53;;;;;;;;;;4971233;28;98114;-75
2023/05/27 04:59:16;;;;;;;18.70;5.25;;;;;;;;;;4967192;28;101135;-74
2023/05/27 05:02:09;;;;;;;18.55;5.20;;;;;;;;;;4967771;28;98333;-74
2023/05/27 05:04:41;;;;;;;20.70;5.15;;;;;;;;;;4967920;28;98764;-75
2023/05/27 05:07:07;;;;;;;18.92;5.50;;;;;;;;;;4966882;28;100495;-76
2023/05/27 05:09:36;;;;;;;17.73;5.40;;;;;;;;;;4959609;28;98362;-74
2023/05/27 05:12:10;;;;;;;19.02;5.80;;;;;;;;;;4967807;28;100345;-75
2023/05/27 05:14:40;;;;;;;20.65;5.53;;;;;;;;;;4965883;28;101227;-75
2023/05/27 05:17:07;;;;;;;24.45;5.93;;;;;;;;;;4972404;28;98342;-74
2023/05/27 05:19:33;;;;;;;16.02;4.85;;;;;;;;;;4966628;28;100771;-73
2023/05/27 05:22:00;;;;;;;19.00;4.60;;;;;;;;;;4966866;28;99062;-75
2023/05/27 05:24:28;;;;;;;17.50;5.50;;;;;;;;;;4966828;28;100683;-75
2023/05/27 05:26:55;;;;;;;14.02;5.45;;;;;;;;;;4966469;28;102160;-75
2023/05/27 05:29:22;;;;;;;23.00;6.80;;;;;;;;;;4965978;28;98484;-74
2023/05/27 05:31:51;;;;;;;21.13;4.93;;;;;;;;;;4964660;28;101334;-75
2023/05/27 05:34:20;;;;;;;18.13;5.53;;;;;;;;;;4966722;28;101301;-74
2023/05/27 05:36:50;;;;;;;21.25;5.28;;;;;;;;;;4966853;28;98679;-76
2023/05/27 05:39:16;;;;;;;20.95;4.75;;;;;;;;;;4971194;28;98458;-75
2023/05/27 05:41:47;;;;;;;22.67;6.13;;;;;;;;;;4972228;28;98459;-75
2023/05/27 05:44:16;;;;;;;14.25;4.95;;;;;;;;;;4963113;28;99249;-75
2023/05/27 05:46:43;;;;;;;24.50;5.45;;;;;;;;;;4968427;28;98780;-74
2023/05/27 05:49:10;;;;;;;13.30;4.28;;;;;;;;;;4966598;28;98928;-74
2023/05/27 05:51:41;;;;;;;14.43;4.68;;;;;;;;;;4965929;28;100974;-75
2023/05/27 05:54:07;;;;;;;22.63;5.10;;;;;;;;;;4967135;28;99900;-73
2023/05/27 05:56:40;;;;;;;15.30;4.13;;;;;;;;;;4965956;28;98318;-73
2023/05/27 05:59:06;;;;;;;14.68;4.72;;;;;;;;;;4966861;28;100382;-74
2023/05/27 06:01:33;;;;;;;16.63;5.53;;;;;;;;;;4969391;28;101606;-74
2023/05/27 06:04:04;;;;;;;16.05;5.30;;;;;;;;;;4966204;28;101042;-74
2023/05/27 06:06:36;;;;;;;15.10;4.70;;;;;;;;;;4966465;28;100916;-73
2023/05/27 06:09:28;;;;;;;20.45;4.65;;;;;;;;;;4951031;28;98239;-75
2023/05/27 06:11:58;;;;;;;21.65;5.70;;;;;;;;;;4958660;28;100692;-76
2023/05/27 06:14:27;;;;;;;22.08;5.05;;;;;;;;;;4966519;28;101663;-75
2023/05/27 06:16:57;;;;;;;17.50;5.45;;;;;;;;;;4966296;28;98301;-73
2023/05/27 06:19:23;;;;;;;20.38;5.05;;;;;;;;;;4965854;28;98503;-76
2023/05/27 06:21:51;;;;;;;16.50;4.85;;;;;;;;;;4967983;28;99489;-75
2023/05/27 06:24:37;;;;;;;15.13;4.50;;;;;;;;;;4969703;28;98088;-75
2023/05/27 06:27:14;;;;;;;20.25;4.35;;;;;;;;;;4966673;28;99914;-74
2023/05/27 06:29:41;;;;;;;20.45;5.03;;;;;;;;;;4966370;28;98256;-75
2023/05/27 06:32:08;;;;;;;17.92;5.00;;;;;;;;;;4965631;28;98540;-75
2023/05/27 06:34:35;;;;;;;20.35;5.88;;;;;;;;;;4967818;28;101664;-76
2023/05/27 06:37:02;;;;;;;19.05;5.10;;;;;;;;;;4960090;28;98443;-74
2023/05/27 06:39:28;;;;;;;17.38;5.22;;;;;;;;;;4965626;28;98452;-74
2023/05/27 06:41:55;;;;;;;19.58;5.20;;;;;;;;;;4965312;28;100700;-75
2023/05/27 06:44:38;;;;;;;19.60;6.00;;;;;;;;;;4965594;28;98304;-74
2023/05/27 06:47:16;;;;;;;18.38;5.20;;;;;;;;;;4956634;28;101315;-75
2023/05/27 06:49:43;;;;;;;19.98;5.35;;;;;;;;;;4962527;28;98285;-74
2023/05/27 06:52:10;;;;;;;13.18;5.10;;;;;;;;;;4965833;28;98449;-74
2023/05/27 06:55:07;;;;;;;17.95;5.18;;;;;;;;;;4968493;28;98584;-74
2023/05/27 06:57:52;;;;;;;17.88;5.20;;;;;;;;;;4970967;28;98182;-75
2023/05/27 07:00:41;;;;;;;20.05;5.88;;;;;;;;;;4966962;28;98445;-74
2023/05/27 07:03:21;;;;;;;20.88;5.75;;;;;;;;;;4969452;28;101153;-75
2023/05/27 07:05:51;;;;;;;15.20;5.18;;;;;;;;;;4969341;28;98340;-74
2023/05/27 07:08:17;;;;;;;20.70;5.53;;;;;;;;;;4969693;28;98064;-75
2023/05/27 07:10:47;;;;;;;16.23;6.32;;;;;;;;;;4971536;28;98292;-74
2023/05/27 07:13:18;;;;;;;17.85;5.07;;;;;;;;;;4969019;28;100722;-74
2023/05/27 07:15:49;;;;;;;18.45;5.43;;;;;;;;;;4968992;28;98929;-76
2023/05/27 07:18:16;;;;;;;18.55;5.85;;;;;;;;;;4970873;28;98182;-75
2023/05/27 07:20:44;;;;;;;14.88;5.22;;;;;;;;;;4937506;28;100676;-74
2023/05/27 07:23:12;;;;;;;18.42;6.18;;;;;;;;;;4972187;28;100175;-73
2023/05/27 07:25:42;;;;;;;20.38;6.95;;;;;;;;;;4971709;28;98328;-73
2023/05/27 07:28:08;;;;;;;18.30;4.95;;;;;;;;;;4957374;28;99124;-73
2023/05/27 07:30:41;;;;;;;16.05;5.97;;;;;;;;;;4968742;28;101356;-73
2023/05/27 07:33:08;;;;;;;19.92;5.47;;;;;;;;;;4964709;28;98464;-73
2023/05/27 07:35:35;;;;;;;21.65;5.43;;;;;;;;;;4962870;28;98976;-73
2023/05/27 07:38:03;;;;;;;12.50;4.57;;;;;;;;;;4965189;28;99648;-72
2023/05/27 07:40:29;;;;;;;16.27;5.75;;;;;;;;;;4966539;28;101491;-75
2023/05/27 07:42:56;;;;;;;30.52;5.80;;;;;;;;;;4969194;28;100735;-74
2023/05/27 07:45:22;;;;;;;24.60;6.55;;;;;;;;;;4963170;28;98992;-74
2023/05/27 07:47:49;;;;;;;13.52;5.40;;;;;;;;;;4961765;28;100824;-73
2023/05/27 07:50:16;;;;;;;17.33;5.18;;;;;;;;;;4956567;28;99047;-74
2023/05/27 07:52:46;;;;;;;20.30;5.93;;;;;;;;;;4971755;28;98097;-75
2023/05/27 07:55:25;;;;;;;19.88;5.63;;;;;;;;;;4968351;28;101710;-75
2023/05/27 07:57:53;;;;;;;17.50;5.60;;;;;;;;;;4967366;28;98309;-73
2023/05/27 08:00:20;;;;;;;19.73;6.13;;;;;;;;;;4968223;28;101208;-78
2023/05/27 08:02:53;;;;;;;19.30;5.65;;;;;;;;;;4962740;28;98620;-74
2023/05/27 08:05:46;;;;;;;18.48;5.68;;;;;;;;;;4959441;28;98230;-76
2023/05/27 08:08:30;;;;;;;12.25;5.15;;;;;;;;;;4968166;28;100741;-75
2023/05/27 08:11:22;;;;;;;17.45;6.07;;;;;;;;;;4962464;28;102209;-74
2023/05/27 08:14:12;;;;;;;22.00;6.50;;;;;;;;;;4968540;28;98178;-73
2023/05/27 08:16:47;;;;;;;19.15;5.15;;;;;;;;;;4969705;28;98980;-74
2023/05/27 08:19:39;;;;;;;22.67;6.00;;;;;;;;;;4964052;28;98296;-75
2023/05/27 08:22:26;;;;;;;21.65;5.68;;;;;;;;;;4968859;28;98283;-74
2023/05/27 08:25:11;;;;;;;20.35;5.80;;;;;;;;;;4958656;28;98898;-75
2023/05/27 08:27:47;;;;;;;17.90;6.45;;;;;;;;;;4952653;28;98785;-75
2023/05/27 08:30:21;;;;;;;14.73;5.00;;;;;;;;;;4960383;28;101226;-75
2023/05/27 08:32:59;;;;;;;15.02;5.97;;;;;;;;;;4966617;28;100358;-73
2023/05/27 08:35:26;;;;;;;17.35;5.70;;;;;;;;;;4962907;28;98155;-74
2023/05/27 08:37:52;;;;;;;23.42;6.07;;;;;;;;;;4957429;28;100181;-74
2023/05/27 08:40:19;;;;;;;18.58;6.03;;;;;;;;;;4969561;28;101186;-74
2023/05/27 08:42:50;;;;;;;19.02;6.35;;;;;;;;;;4960284;28;100616;-75
2023/05/27 08:45:16;;;;;;;15.13;4.88;;;;;;;;;;4968379;28;98878;-76
2023/05/27 08:47:44;;;;;;;19.38;5.95;;;;;;;;;;4960122;28;98340;-75
2023/05/27 08:50:17;;;;;;;21.98;5.32;;;;;;;;;;4957318;28;99565;-74
2023/05/27 08:52:49;;;;;;;24.13;6.30;;;;;;;;;;4964014;28;99917;-74
2023/05/27 08:55:19;;;;;;;26.00;6.15;;;;;;;;;;4953578;28;98550;-76
2023/05/27 08:57:57;;;;;;;12.18;5.28;;;;;;;;;;4964997;28;101153;-76
2023/05/27 09:00:33;;;;;;;17.23;6.18;;;;;;;;;;4953917;28;100485;-74
2023/05/27 09:03:11;;;;;;;23.70;5.90;;;;;;;;;;4966482;28;98361;-74
2023/05/27 09:05:38;;;;;;;19.10;6.10;;;;;;;;;;4964764;28;101877;-76
2023/05/27 09:08:05;;;;;;;16.30;5.40;;;;;;;;;;4960293;28;99435;-76
2023/05/27 09:10:38;;;;;;;21.13;6.70;;;;;;;;;;4968489;28;99539;-76
2023/05/27 09:13:04;;;;;;;16.05;5.57;;;;;;;;;;4966320;28;99824;-77
2023/05/27 09:15:32;;;;;;;24.27;6.65;;;;;;;;;;4967441;28;98204;-75
2023/05/27 09:17:58;;;;;;;16.77;6.22;;;;;;;;;;4965268;28;98760;-76
2023/05/27 09:20:25;;;;;;;20.13;6.25;;;;;;;;;;4966414;28;99903;-77
2023/05/27 09:23:03;;;;;;;18.48;6.47;;;;;;;;;;4967369;28;98861;-77
2023/05/27 09:25:30;;;;;;;16.13;6.13;;;;;;;;;;4963375;28;100062;-76
2023/05/27 09:27:57;;;;;;;21.08;6.63;;;;;;;;;;4954485;28;98285;-77
2023/05/27 09:30:25;;;;;;;16.63;5.70;;;;;;;;;;4956917;28;99613;-76
2023/05/27 09:32:59;;;;;;;18.30;6.25;;;;;;;;;;4980468;22;100578;-76
2023/05/27 09:35:26;;;;;;;17.63;6.47;;;;;;;;;;4979132;28;98244;-76
2023/05/27 09:37:52;;;;;;;18.08;5.95;;;;;;;;;;4988368;28;98634;-76
2023/05/27 09:40:19;;;;;;;14.52;5.72;;;;;;;;;;4984127;28;98982;-75
2023/05/27 09:42:47;;;;;;;20.25;6.32;;;;;;;;;;4983659;28;98819;-76
2023/05/27 09:45:14;;;;;;;11.88;5.25;;;;;;;;;;4990096;28;99804;-78
2023/05/27 09:47:48;;;;;;;16.38;5.82;;;;;;;;;;4986607;28;98248;-77
2023/05/27 09:50:15;;;;;;;17.20;5.07;;;;;;;;;;4981336;28;99361;-78
2023/05/27 09:52:43;;;;;;;14.30;5.60;;;;;;;;;;4986860;28;98958;-78
2023/05/27 09:55:30;;;;;;;16.40;5.75;;;;;;;;;;4978942;28;100140;-77
2023/05/27 09:57:57;;;;;;;12.95;5.13;;;;;;;;;;4978897;28;99051;-76
2023/05/27 10:00:23;;;;;;;20.77;6.65;;;;;;;;;;4985171;28;99080;-76
2023/05/27 10:02:51;;;;;;;14.50;5.50;;;;;;;;;;4975468;28;98548;-77
2023/05/27 10:05:20;;;;;;;17.30;5.50;;;;;;;;;;4983372;28;101903;-77
2023/05/27 10:07:48;;;;;;;15.85;6.47;;;;;;;;;;4989800;28;100226;-76
2023/05/27 10:10:18;;;;;;;20.52;5.97;;;;;;;;;;4986802;28;99276;-77
2023/05/27 10:12:46;;;;;;;18.90;6.35;;;;;;;;;;4985238;28;100777;-76
2023/05/27 10:15:31;;;;;;;13.15;5.53;;;;;;;;;;4987291;28;99645;-77
2023/05/27 10:18:09;;;;;;;19.15;6.30;;;;;;;;;;4979610;28;99708;-76
2023/05/27 10:20:42;;;;;;;17.40;6.43;;;;;;;;;;4983239;28;100172;-76
2023/05/27 10:23:17;;;;;;;17.58;6.68;;;;;;;;;;4978574;28;99507;-76
2023/05/27 10:25:51;;;;;;;17.95;6.60;;;;;;;;;;4982716;28;99013;-75
2023/05/27 10:28:25;;;;;;;15.10;6.05;;;;;;;;;;4979443;28;100254;-75
2023/05/27 10:30:51;;;;;;;14.15;5.38;;;;;;;;;;4986512;28;98301;-75
2023/05/27 10:33:30;;;;;;;12.02;5.75;;;;;;;;;;4980882;28;100177;-74
2023/05/27 10:36:02;;;;;;;20.13;6.22;;;;;;;;;;4977147;28;99114;-78
2023/05/27 10:38:29;;;;;;;12.27;5.15;;;;;;;;;;4979043;28;99051;-76
2023/05/27 10:41:00;;;;;;;13.93;5.35;;;;;;;;;;4976900;28;99883;-75
2023/05/27 10:43:27;;;;;;;21.35;6.18;;;;;;;;;;4981856;28;100097;-75
2023/05/27 10:46:11;;;;;;;19.80;6.93;;;;;;;;;;4981182;28;99570;-72
2023/05/27 10:48:39;;;;;;;14.73;5.63;;;;;;;;;;4986558;28;98919;-73
2023/05/27 10:51:07;;;;;;;18.13;6.07;;;;;;;;;;4983737;28;98304;-74
2023/05/27 10:53:37;;;;;;;16.45;6.00;;;;;;;;;;4987846;28;99665;-74
2023/05/27 10:56:04;;;;;;;11.80;5.70;;;;;;;;;;4986229;28;98351;-73
2023/05/27 10:58:34;;;;;;;21.13;6.10;;;;;;;;;;4983128;28;99273;-75
2023/05/27 11:01:01;;;;;;;14.23;5.95;;;;;;;;;;4985427;28;99899;-72
2023/05/27 11:03:28;;;;;;;15.90;6.18;;;;;;;;;;4986871;28;98393;-73
2023/05/27 11:05:58;;;;;;;14.75;5.88;;;;;;;;;;4978944;28;99465;-75
2023/05/27 11:08:25;;;;;;;10.65;5.82;;;;;;;;;;4986487;28;100023;-73
2023/05/27 11:10:57;;;;;;;15.43;5.38;;;;;;;;;;4987096;28;98368;-73
2023/05/27 11:13:23;;;;;;;;;;;;;;;;;;4987012;28;98646;-73
2023/05/27 11:15:49;;;;;;;14.60;5.30;;;;;;;;;;4984252;28;129533;-73
2023/05/27 11:18:16;;;;;;;20.25;5.57;;;;;;;;;;4988422;28;98590;-73
2023/05/27 11:20:42;;;;;;;14.35;5.13;;;;;;;;;;4989169;28;99951;-74
2023/05/27 11:23:09;;;;;;;15.50;5.80;;;;;;;;;;4988106;28;98103;-73
2023/05/27 11:25:45;;;;;;;17.50;6.90;;;;;;;;;;4987319;28;99816;-73
2023/05/27 11:28:16;;;;;;;17.48;5.93;;;;;;;;;;4986332;28;100097;-73
2023/05/27 11:30:43;;;;;;;19.33;6.17;;;;;;;;;;4985133;28;98054;-74
2023/05/27 11:33:10;;;;;;;16.15;5.93;;;;;;;;;;4975950;28;99875;-72
2023/05/27 11:36:05;;;;;;;16.42;5.15;;;;;;;;;;4986520;28;99625;-74
2023/05/27 11:38:45;;;;;;;12.20;5.60;;;;;;;;;;4985669;28;99777;-73
2023/05/27 11:41:17;;;;;;;12.32;5.40;;;;;;;;;;4982007;28;100321;-73
2023/05/27 11:43:57;;;;;;;15.50;5.43;;;;;;;;;;4987056;28;98239;-72
2023/05/27 11:46:43;;;;;;;15.38;5.70;;;;;;;;;;4985731;28;99317;-73
2023/05/27 11:49:15;;;;;;;13.65;5.15;;;;;;;;;;4984515;28;99792;-74
2023/05/27 11:51:49;;;;;;;17.15;5.45;;;;;;;;;;4988245;28;98967;-73
2023/05/27 11:54:23;;;;;;;13.52;4.97;;;;;;;;;;4984755;28;100797;-73
2023/05/27 11:56:51;;;;;;;17.92;5.35;;;;;;;;;;4987509;28;100019;-74
2023/05/27 11:59:17;;;;;;;19.17;6.00;;;;;;;;;;4990367;28;99868;-75
2023/05/27 12:01:45;;;;;;;14.15;4.72;;;;;;;;;;4984408;28;99943;-74
2023/05/27 12:04:13;;;;;;;11.20;4.47;;;;;;;;;;4990181;28;98233;-74
2023/05/27 12:06:43;;;;;;;17.27;5.93;;;;;;;;;;4979212;28;100064;-76
2023/05/27 12:09:15;;;;;;;17.55;6.18;;;;;;;;;;4986539;28;98925;-75
2023/05/27 12:11:41;;;;;;;14.23;4.72;;;;;;;;;;4989462;28;98333;-77
2023/05/27 12:14:09;;;;;;;14.75;5.45;;;;;;;;;;4990112;28;98753;-76
2023/05/27 12:16:38;;;;;;;13.13;5.53;;;;;;;;;;4984607;28;100306;-76
2023/05/27 12:19:11;;;;;;;13.75;5.68;;;;;;;;;;4981637;28;98382;-76
2023/05/27 12:21:38;;;;;;;18.50;5.43;;;;;;;;;;4992170;28;99351;-76
2023/05/27 12:24:06;;;;;;;14.75;5.68;;;;;;;;;;4986072;28;98662;-75
2023/05/27 12:26:33;;;;;;;12.30;4.90;;;;;;;;;;4989904;28;100230;-76
2023/05/27 12:28:59;;;;;;;13.95;5.72;;;;;;;;;;4987701;28;99070;-76
2023/05/27 12:31:26;;;;;;;11.27;5.43;;;;;;;;;;4987252;28;98284;-75
2023/05/27 12:33:53;;;;;;;14.10;5.75;;;;;;;;;;4987033;28;99314;-77
2023/05/27 12:36:21;;;;;;;23.58;5.22;;;;;;;;;;4978546;28;101016;-76
2023/05/27 12:38:50;;;;;;;20.55;6.63;;;;;;;;;;4988898;28;98339;-75
2023/05/27 12:41:20;;;;;;;16.42;5.63;;;;;;;;;;4982937;28;98763;-74
2023/05/27 12:44:02;;;;;;;13.88;4.93;;;;;;;;;;4985070;28;99343;-73
2023/05/27 12:46:30;;;;;;;14.23;5.47;;;;;;;;;;4985171;28;99956;-73
2023/05/27 12:48:58;;;;;;;17.83;5.10;;;;;;;;;;4987836;28;99778;-74
2023/05/27 12:51:25;;;;;;;12.75;4.72;;;;;;;;;;4978348;28;98418;-74
2023/05/27 12:53:58;;;;;;;23.27;5.38;;;;;;;;;;4977715;28;99686;-74
2023/05/27 12:56:25;;;;;;;12.95;4.65;;;;;;;;;;4987687;28;100567;-75
2023/05/27 12:58:54;;;;;;;12.82;5.13;;;;;;;;;;4988255;28;98238;-74
2023/05/27 13:01:23;;;;;;;19.20;5.38;;;;;;;;;;4987666;28;98709;-75
2023/05/27 13:04:02;;;;;;;15.70;5.32;;;;;;;;;;4988181;28;99548;-75
2023/05/27 13:06:40;;;;;;;13.63;4.82;;;;;;;;;;4979607;28;99766;-75
2023/05/27 13:09:13;;;;;;;12.20;4.80;;;;;;;;;;4976363;28;100118;-74
2023/05/27 13:11:48;;;;;;;15.45;4.70;;;;;;;;;;4989156;28;98067;-74
2023/05/27 13:14:15;;;;;;;14.80;5.32;;;;;;;;;;4987020;28;99532;-76
2023/05/27 13:16:49;;;;;;;14.13;4.90;;;;;;;;;;4982130;28;99122;-75
2023/05/27 13:19:16;;;;;;;11.68;4.75;;;;;;;;;;4983770;28;98242;-75
2023/05/27 13:21:44;;;;;;;12.43;4.78;;;;;;;;;;4988675;28;98347;-74
2023/05/27 13:24:10;;;;;;;15.13;5.07;;;;;;;;;;4979263;28;98928;-75
2023/05/27 13:26:37;;;;;;;14.77;5.38;;;;;;;;;;4979476;28;98288;-76
2023/05/27 13:29:03;;;;;;;16.30;5.60;;;;;;;;;;4987824;28;98989;-75
2023/05/27 13:31:29;;;;;;;13.68;4.60;;;;;;;;;;4987893;28;99681;-75
2023/05/27 13:33:58;;;;;;;10.02;4.82;;;;;;;;;;4979357;28;99456;-75
2023/05/27 13:36:25;;;;;;;10.40;5.30;;;;;;;;;;4987289;28;98858;-76
2023/05/27 13:38:51;;;;;;;8.65;3.22;;;;;;;;;;4983162;28;98781;-75
2023/05/27 13:41:18;;;;;;;11.30;4.70;;;;;;;;;;4984148;28;98874;-74
2023/05/27 13:43:44;;;;;;;12.85;4.88;;;;;;;;;;4980760;28;100105;-75
2023/05/27 13:46:11;;;;;;;10.13;4.47;;;;;;;;;;4988054;28;98385;-75
2023/05/27 13:48:37;;;;;;;11.70;4.57;;;;;;;;;;4989885;28;99294;-74
2023/05/27 13:51:04;;;;;;;14.77;5.28;;;;;;;;;;4986189;28;98343;-75
2023/05/27 13:53:31;;;;;;;15.38;4.90;;;;;;;;;;4985375;28;99640;-75
2023/05/27 13:55:57;;;;;;;12.73;5.00;;;;;;;;;;4976116;28;99958;-77
2023/05/27 13:58:24;;;;;;;17.60;4.78;;;;;;;;;;4976858;28;98220;-75
2023/05/27 14:00:51;;;;;;;12.23;4.72;;;;;;;;;;4986502;28;99292;-75
2023/05/27 14:03:17;;;;;;;12.73;4.68;;;;;;;;;;4978569;28;99863;-76
2023/05/27 14:05:44;;;;;;;12.85;4.85;;;;;;;;;;4981318;28;99699;-75
2023/05/27 14:08:10;;;;;;;14.38;5.13;;;;;;;;;;4987812;28;100645;-76
2023/05/27 14:10:36;;;;;;;15.93;5.28;;;;;;;;;;4988841;28;99186;-74
2023/05/27 14:13:04;;;;;;;14.15;4.90;;;;;;;;;;4987218;28;98480;-75
2023/05/27 14:15:31;;;;;;;19.05;5.20;;;;;;;;;;4969335;28;98975;-76
2023/05/27 14:18:04;;;;;;;17.73;5.40;;;;;;;;;;4987543;28;98292;-75
2023/05/27 14:20:32;;;;;;;13.40;4.90;;;;;;;;;;4984171;28;98529;-74
2023/05/27 14:23:01;;;;;;;13.75;5.15;;;;;;;;;;4979831;28;98862;-76
2023/05/27 14:25:28;;;;;;;17.77;5.30;;;;;;;;;;4987013;28;98310;-75
2023/05/27 14:27:56;;;;;;;14.60;5.10;;;;;;;;;;4987555;28;99519;-75
2023/05/27 14:30:24;;;;;;;11.60;5.25;;;;;;;;;;4978391;28;99023;-75
2023/05/27 14:32:51;;;;;;;13.13;5.47;;;;;;;;;;4988420;28;98337;-76
2023/05/27 14:35:18;;;;;;;14.85;4.90;;;;;;;;;;4982870;28;100511;-75
2023/05/27 14:37:44;;;;;;;16.58;5.57;;;;;;;;;;4984964;28;98297;-75
2023/05/27 14:40:10;;;;;;;19.60;5.15;;;;;;;;;;4986813;28;99684;-75